Time;durP1;ratioP1;P1;durP2;ratioP2;P2;SDS_P1;SDS_P2;PMS_P1;PMS_P2;Temp;Humidity;BMP_temperature;BMP_pressure;BME280_temperature;BME280_humidity;BME280_pressure;Samples;Min_cycle;Max_cycle;Signal;HPM_P1;HPM_P2
2024/01/15 00:01:57;;;;;;;32.70;16.27;;;;;;;;;;5003985;28;20539;-82
2024/01/15 00:04:23;;;;;;;30.70;13.25;;;;;;;;;;5003457;28;20542;-82
2024/01/15 00:09:24;;;;;;;20.70;12.35;;;;;;;;;;5514564;22;20566;31
2024/01/15 00:11:50;;;;;;;33.97;16.63;;;;;;;;;;5007646;28;20314;-81
2024/01/15 00:14:19;;;;;;;33.45;16.70;;;;;;;;;;5022107;28;20187;-80
2024/01/15 00:16:45;;;;;;;31.17;15.68;;;;;;;;;;5006079;28;20192;-80
2024/01/15 00:19:11;;;;;;;36.17;16.30;;;;;;;;;;5007020;28;20179;-81
2024/01/15 00:21:37;;;;;;;31.80;13.93;;;;;;;;;;5022775;28;20440;-80
2024/01/15 00:24:03;;;;;;;36.55;15.48;;;;;;;;;;5022081;28;20410;-81
2024/01/15 00:26:29;;;;;;;31.00;14.48;;;;;;;;;;5032421;28;20179;-81
2024/01/15 00:28:55;;;;;;;35.93;15.70;;;;;;;;;;5018453;28;20296;-80
2024/01/15 00:31:21;;;;;;;38.85;19.90;;;;;;;;;;5011203;28;20405;-81
2024/01/15 00:33:47;;;;;;;44.40;19.87;;;;;;;;;;5043604;28;20177;-81
2024/01/15 00:36:14;;;;;;;32.63;16.88;;;;;;;;;;5042761;28;20401;-81
2024/01/15 00:38:40;;;;;;;35.28;17.42;;;;;;;;;;5032124;28;20182;-82
2024/01/15 00:41:06;;;;;;;35.70;16.45;;;;;;;;;;5023411;28;20664;-81
2024/01/15 00:43:33;;;;;;;33.22;15.80;;;;;;;;;;5024965;28;20186;-81
2024/01/15 00:45:59;;;;;;;37.78;17.40;;;;;;;;;;5042700;28;20203;-81
2024/01/15 00:48:25;;;;;;;33.20;16.70;;;;;;;;;;5042461;28;20198;-82
2024/01/15 00:50:51;;;;;;;31.13;13.93;;;;;;;;;;5028321;28;20822;-80
2024/01/15 00:53:17;;;;;;;36.55;15.40;;;;;;;;;;5023129;28;20438;-81
2024/01/15 00:55:43;;;;;;;41.55;14.73;;;;;;;;;;5023156;28;20195;-81
2024/01/15 00:58:09;;;;;;;32.90;15.70;;;;;;;;;;5023394;28;20185;-81
2024/01/15 01:00:35;;;;;;;33.63;17.80;;;;;;;;;;5023240;28;20412;-82
2024/01/15 01:03:01;;;;;;;41.45;14.85;;;;;;;;;;5018941;28;20596;-81
2024/01/15 01:05:27;;;;;;;37.27;18.87;;;;;;;;;;5002301;28;20175;-81
2024/01/15 01:07:53;;;;;;;26.10;12.85;;;;;;;;;;5003125;28;20462;-81
2024/01/15 01:10:19;;;;;;;34.57;14.50;;;;;;;;;;5002672;28;20262;-81
2024/01/15 01:12:45;;;;;;;36.75;18.38;;;;;;;;;;5003113;28;20439;-81
2024/01/15 01:15:11;;;;;;;32.73;14.83;;;;;;;;;;5003555;28;20707;-80
2024/01/15 01:17:37;;;;;;;31.43;14.37;;;;;;;;;;5004472;28;20773;-81
2024/01/15 01:20:04;;;;;;;37.33;18.75;;;;;;;;;;5041367;28;20403;-81
2024/01/15 01:22:30;;;;;;;29.92;14.05;;;;;;;;;;5042165;28;20708;-81
2024/01/15 01:24:56;;;;;;;35.92;18.20;;;;;;;;;;5042243;28;20177;-81
2024/01/15 01:27:22;;;;;;;43.83;19.90;;;;;;;;;;5041113;28;20665;-81
2024/01/15 01:29:48;;;;;;;42.55;17.80;;;;;;;;;;5041008;28;20237;-81
2024/01/15 01:32:14;;;;;;;41.08;17.88;;;;;;;;;;5040230;28;20178;-81
2024/01/15 01:34:42;;;;;;;35.30;17.80;;;;;;;;;;5040352;28;20182;-81
2024/01/15 01:37:08;;;;;;;43.42;17.15;;;;;;;;;;5041140;28;20492;-81
2024/01/15 01:39:34;;;;;;;35.70;16.65;;;;;;;;;;5040732;28;20520;-81
2024/01/15 01:42:00;;;;;;;52.57;20.43;;;;;;;;;;5040170;28;20193;-81
2024/01/15 01:44:26;;;;;;;49.55;19.38;;;;;;;;;;5039363;28;20936;-81
2024/01/15 01:46:52;;;;;;;36.13;15.90;;;;;;;;;;5007006;28;20257;-82
2024/01/15 01:49:18;;;;;;;39.10;16.73;;;;;;;;;;5003017;28;20905;-82
2024/01/15 01:51:44;;;;;;;44.22;18.58;;;;;;;;;;5019637;28;20181;-82
2024/01/15 01:54:13;;;;;;;48.03;18.90;;;;;;;;;;5020472;28;20178;-82
2024/01/15 01:56:39;;;;;;;34.78;17.27;;;;;;;;;;5023938;28;20232;-82
2024/01/15 01:59:07;;;;;;;40.72;18.13;;;;;;;;;;5024504;28;20205;-81
2024/01/15 02:01:33;;;;;;;44.63;19.08;;;;;;;;;;5023598;28;20537;-81
2024/01/15 02:03:59;;;;;;;56.30;21.38;;;;;;;;;;5024066;28;20171;-81
2024/01/15 02:06:25;;;;;;;51.28;19.95;;;;;;;;;;5023642;28;20179;-81
2024/01/15 02:08:51;;;;;;;44.70;18.83;;;;;;;;;;5023333;28;20230;-82
2024/01/15 02:11:17;;;;;;;43.95;18.73;;;;;;;;;;5022691;28;20485;-82
2024/01/15 02:13:43;;;;;;;49.35;21.50;;;;;;;;;;5023354;28;20338;-82
2024/01/15 02:16:09;;;;;;;43.13;18.58;;;;;;;;;;5018117;28;20216;-82
2024/01/15 02:18:44;;;;;;;55.63;19.37;;;;;;;;;;5005832;28;20277;-82
2024/01/15 02:21:11;;;;;;;52.50;20.55;;;;;;;;;;5003486;28;20407;-82
2024/01/15 02:23:37;;;;;;;46.80;20.27;;;;;;;;;;5002551;28;20184;-82
2024/01/15 02:26:03;;;;;;;59.03;24.20;;;;;;;;;;5020025;28;20186;-82
2024/01/15 02:28:30;;;;;;;41.28;19.50;;;;;;;;;;5022988;28;20232;-82
2024/01/15 02:30:56;;;;;;;50.30;21.27;;;;;;;;;;5022809;28;20168;-83
2024/01/15 02:33:22;;;;;;;38.58;19.33;;;;;;;;;;5023172;28;20178;-83
2024/01/15 02:35:50;;;;;;;43.37;18.57;;;;;;;;;;5022194;28;20179;-82
2024/01/15 02:38:16;;;;;;;37.00;17.85;;;;;;;;;;5022202;28;20484;-83
2024/01/15 02:40:42;;;;;;;45.60;22.23;;;;;;;;;;5022839;28;20282;-83
2024/01/15 02:43:08;;;;;;;52.00;18.52;;;;;;;;;;5022474;28;20191;-83
2024/01/15 02:45:34;;;;;;;46.88;21.33;;;;;;;;;;5021732;28;20175;-83
2024/01/15 02:48:00;;;;;;;43.35;21.85;;;;;;;;;;5022241;28;20218;-83
2024/01/15 02:50:26;;;;;;;36.05;17.45;;;;;;;;;;5022551;28;20171;-83
2024/01/15 02:52:52;;;;;;;42.15;20.58;;;;;;;;;;5022029;28;20647;-83
2024/01/15 02:55:18;;;;;;;48.63;20.52;;;;;;;;;;5021886;28;20208;-83
2024/01/15 02:57:44;;;;;;;39.00;19.30;;;;;;;;;;5021669;28;20180;-83
2024/01/15 03:00:11;;;;;;;51.80;18.52;;;;;;;;;;5022038;28;20171;-83
2024/01/15 03:02:43;;;;;;;43.05;19.80;;;;;;;;;;5022151;28;20644;-83
2024/01/15 03:05:09;;;;;;;48.15;20.95;;;;;;;;;;5005603;28;20668;-83
2024/01/15 03:07:35;;;;;;;36.47;21.13;;;;;;;;;;5017062;28;20220;-83
2024/01/15 03:10:01;;;;;;;42.55;22.00;;;;;;;;;;5002270;28;20243;-83
2024/01/15 03:12:27;;;;;;;45.58;19.52;;;;;;;;;;5001847;28;20171;-83
2024/01/15 03:14:53;;;;;;;45.67;19.88;;;;;;;;;;5002531;28;20180;-83
2024/01/15 03:17:19;;;;;;;37.53;21.70;;;;;;;;;;5021445;28;20182;-83
2024/01/15 03:19:45;;;;;;;43.35;22.73;;;;;;;;;;5021662;28;20505;-84
2024/01/15 03:22:11;;;;;;;46.33;19.70;;;;;;;;;;5021510;28;20175;-84
2024/01/15 03:24:37;;;;;;;38.92;18.48;;;;;;;;;;5020889;28;20175;-84
2024/01/15 03:27:03;;;;;;;39.20;21.20;;;;;;;;;;5021101;28;20171;-83
2024/01/15 03:29:29;;;;;;;33.03;19.00;;;;;;;;;;5021759;28;20230;-84
2024/01/15 03:31:55;;;;;;;28.40;15.57;;;;;;;;;;5021390;28;20177;-84
2024/01/15 03:34:21;;;;;;;49.67;21.85;;;;;;;;;;5021905;28;20181;-84
2024/01/15 03:36:47;;;;;;;46.30;20.50;;;;;;;;;;5020736;28;20179;-84
2024/01/15 03:39:13;;;;;;;46.37;24.17;;;;;;;;;;5020922;28;20457;-84
2024/01/15 03:41:39;;;;;;;43.45;21.67;;;;;;;;;;5021155;28;20411;-84
2024/01/15 03:44:05;;;;;;;39.13;20.13;;;;;;;;;;5021293;28;20536;-84
2024/01/15 03:46:31;;;;;;;46.70;23.05;;;;;;;;;;5020665;28;20492;-85
2024/01/15 03:48:57;;;;;;;58.55;24.73;;;;;;;;;;5020823;28;20218;-84
2024/01/15 03:51:24;;;;;;;44.70;22.03;;;;;;;;;;5021785;28;20225;-84
2024/01/15 03:53:49;;;;;;;46.03;18.80;;;;;;;;;;5019160;28;20418;-84
2024/01/15 03:56:15;;;;;;;36.67;20.07;;;;;;;;;;5021539;28;20175;-84
2024/01/15 03:58:41;;;;;;;31.35;14.23;;;;;;;;;;5020956;28;20443;-84
2024/01/15 04:01:11;;;;;;;37.25;20.38;;;;;;;;;;5020864;28;20680;-84
2024/01/15 04:03:37;;;;;;;43.17;21.63;;;;;;;;;;5020948;28;20171;-84
2024/01/15 04:06:04;;;;;;;41.75;20.20;;;;;;;;;;5020710;28;20781;-84
2024/01/15 04:08:30;;;;;;;39.20;16.17;;;;;;;;;;5021172;28;20247;-85
2024/01/15 04:10:56;;;;;;;39.23;18.67;;;;;;;;;;5019616;28;20231;-83
2024/01/15 04:13:22;;;;;;;33.20;18.13;;;;;;;;;;5019929;28;20424;-83
2024/01/15 04:15:48;;;;;;;41.63;19.25;;;;;;;;;;5007700;28;20298;-83
2024/01/15 04:18:16;;;;;;;31.95;15.75;;;;;;;;;;5031801;28;20207;-83
2024/01/15 04:20:42;;;;;;;29.95;13.75;;;;;;;;;;5004545;28;20269;-83
2024/01/15 04:23:08;;;;;;;29.27;14.70;;;;;;;;;;5019011;28;20221;-83
2024/01/15 04:25:34;;;;;;;32.30;16.70;;;;;;;;;;5019743;28;20185;-83
2024/01/15 04:28:00;;;;;;;34.53;17.75;;;;;;;;;;5020472;28;20469;-83
2024/01/15 04:30:26;;;;;;;33.60;17.97;;;;;;;;;;5020427;28;20175;-83
2024/01/15 04:32:52;;;;;;;32.83;17.58;;;;;;;;;;5020824;28;20434;-83
2024/01/15 04:35:18;;;;;;;36.83;17.60;;;;;;;;;;5020053;28;20715;-83
2024/01/15 04:37:44;;;;;;;36.50;19.07;;;;;;;;;;5020313;28;20212;-83
2024/01/15 04:40:10;;;;;;;28.93;15.00;;;;;;;;;;5020324;28;20964;-82
2024/01/15 04:42:36;;;;;;;34.53;19.38;;;;;;;;;;5020777;28;20415;-83
2024/01/15 04:45:02;;;;;;;29.60;16.97;;;;;;;;;;5020284;28;20670;-83
2024/01/15 04:47:28;;;;;;;26.90;14.98;;;;;;;;;;5020118;28;20450;-83
2024/01/15 04:49:54;;;;;;;40.67;18.10;;;;;;;;;;5019412;28;20236;-82
2024/01/15 04:52:20;;;;;;;24.30;11.50;;;;;;;;;;5020268;28;20836;-83
2024/01/15 04:54:46;;;;;;;29.97;15.37;;;;;;;;;;5020226;28;20461;-83
2024/01/15 04:57:12;;;;;;;29.48;15.13;;;;;;;;;;5020382;28;20460;-83
2024/01/15 04:59:38;;;;;;;27.98;15.63;;;;;;;;;;5018654;28;20184;-84
2024/01/15 05:02:04;;;;;;;33.83;16.73;;;;;;;;;;5020485;28;20186;-83
2024/01/15 05:04:30;;;;;;;31.80;17.30;;;;;;;;;;5018750;28;20178;-84
2024/01/15 05:06:56;;;;;;;33.15;17.67;;;;;;;;;;5003181;28;20413;-83
2024/01/15 05:09:22;;;;;;;31.88;17.20;;;;;;;;;;5000921;28;20199;-84
2024/01/15 05:11:48;;;;;;;23.55;13.50;;;;;;;;;;5000384;28;20694;-84
2024/01/15 05:14:14;;;;;;;32.95;16.52;;;;;;;;;;5002475;28;20949;-83
2024/01/15 05:16:40;;;;;;;28.37;15.10;;;;;;;;;;5018355;28;20195;-84
2024/01/15 05:19:08;;;;;;;34.85;17.00;;;;;;;;;;5019591;28;20410;-84
2024/01/15 05:21:33;;;;;;;32.47;15.30;;;;;;;;;;5019311;28;20168;-85
2024/01/15 05:23:59;;;;;;;33.10;16.55;;;;;;;;;;5038964;28;20171;-83
2024/01/15 05:26:25;;;;;;;18.37;12.37;;;;;;;;;;5027361;28;20175;-84
2024/01/15 05:28:51;;;;;;;30.35;16.85;;;;;;;;;;5018572;28;20887;-84
2024/01/15 05:31:17;;;;;;;31.20;13.98;;;;;;;;;;5019173;28;20178;-84
2024/01/15 05:33:43;;;;;;;30.40;16.85;;;;;;;;;;5018784;28;20167;-84
2024/01/15 05:36:09;;;;;;;26.43;15.00;;;;;;;;;;5018824;28;20243;-84
2024/01/15 05:38:35;;;;;;;25.17;13.45;;;;;;;;;;5019501;28;20482;-85
2024/01/15 05:41:02;;;;;;;23.83;14.93;;;;;;;;;;5017638;28;20233;-85
2024/01/15 05:43:28;;;;;;;25.92;12.60;;;;;;;;;;5018949;28;20187;-84
2024/01/15 05:45:54;;;;;;;24.42;14.00;;;;;;;;;;5018753;28;20186;-85
2024/01/15 05:48:20;;;;;;;24.10;12.30;;;;;;;;;;5017455;28;20686;-84
2024/01/15 05:50:46;;;;;;;29.30;15.45;;;;;;;;;;5018635;28;20411;-85
2024/01/15 05:53:12;;;;;;;39.65;16.20;;;;;;;;;;5019027;28;20254;-85
2024/01/15 05:55:38;;;;;;;36.33;16.60;;;;;;;;;;5018264;28;20172;-85
2024/01/15 05:58:04;;;;;;;23.95;15.82;;;;;;;;;;5019505;28;20401;-85
2024/01/15 06:00:32;;;;;;;25.30;14.90;;;;;;;;;;5018706;28;20172;-85
2024/01/15 06:02:58;;;;;;;25.98;13.68;;;;;;;;;;5018009;28;20163;-85
2024/01/15 06:05:24;;;;;;;31.67;15.68;;;;;;;;;;5017469;28;20217;-85
2024/01/15 06:07:50;;;;;;;38.15;18.85;;;;;;;;;;5018487;28;20207;-85
2024/01/15 06:10:16;;;;;;;25.77;12.40;;;;;;;;;;5018716;28;20234;-85
2024/01/15 06:12:44;;;;;;;31.88;18.52;;;;;;;;;;5018275;28;20171;-85
2024/01/15 06:15:10;;;;;;;27.10;16.05;;;;;;;;;;5018470;28;20175;-85
2024/01/15 06:17:37;;;;;;;32.65;16.58;;;;;;;;;;5018722;28;20175;-85
2024/01/15 06:20:04;;;;;;;30.92;16.27;;;;;;;;;;5018471;28;20246;-85
2024/01/15 06:22:30;;;;;;;39.00;21.08;;;;;;;;;;5019262;28;20194;-84
2024/01/15 06:24:56;;;;;;;36.70;18.17;;;;;;;;;;5018079;28;20186;-85
2024/01/15 06:27:22;;;;;;;35.85;18.67;;;;;;;;;;5017567;28;20457;-85
2024/01/15 06:29:48;;;;;;;34.40;19.38;;;;;;;;;;5018306;28;20186;-86
2024/01/15 06:32:14;;;;;;;26.45;17.42;;;;;;;;;;5018076;28;20180;-87
2024/01/15 06:34:40;;;;;;;31.02;16.48;;;;;;;;;;5016374;28;20601;-86
2024/01/15 06:37:06;;;;;;;28.25;16.55;;;;;;;;;;5017456;28;20179;-85
2024/01/15 06:39:32;;;;;;;35.75;18.73;;;;;;;;;;5017482;28;20179;-85
2024/01/15 06:41:58;;;;;;;36.15;16.92;;;;;;;;;;5020545;28;20174;-86
2024/01/15 06:44:24;;;;;;;27.60;14.88;;;;;;;;;;5021257;28;20231;-85
2024/01/15 06:46:51;;;;;;;30.02;17.50;;;;;;;;;;5020933;28;20218;-86
2024/01/15 06:49:17;;;;;;;32.40;18.75;;;;;;;;;;5021101;28;20207;-86
2024/01/15 06:51:43;;;;;;;30.03;15.97;;;;;;;;;;5020693;28;20266;-86
2024/01/15 06:54:09;;;;;;;28.60;17.33;;;;;;;;;;5020027;28;20413;-85
2024/01/15 06:56:36;;;;;;;27.80;15.05;;;;;;;;;;5021296;28;20179;-85
2024/01/15 06:59:02;;;;;;;30.83;15.45;;;;;;;;;;5019239;28;20237;-85
2024/01/15 07:01:28;;;;;;;27.95;15.55;;;;;;;;;;5021337;28;20171;-86
2024/01/15 07:03:54;;;;;;;33.75;16.27;;;;;;;;;;5020672;28;20180;-86
2024/01/15 07:06:20;;;;;;;27.92;15.30;;;;;;;;;;5020907;28;20229;-86
2024/01/15 07:08:46;;;;;;;26.80;15.35;;;;;;;;;;5020991;28;20207;-86
2024/01/15 07:11:12;;;;;;;30.70;16.30;;;;;;;;;;5020303;28;20661;-86
2024/01/15 07:13:38;;;;;;;28.73;16.27;;;;;;;;;;5019467;28;20204;-86
2024/01/15 07:16:04;;;;;;;25.83;15.32;;;;;;;;;;5020647;28;20402;-86
2024/01/15 07:18:30;;;;;;;36.65;17.83;;;;;;;;;;5019667;28;20595;-86
2024/01/15 07:20:56;;;;;;;28.13;17.53;;;;;;;;;;5020373;28;20182;-87
2024/01/15 07:23:22;;;;;;;29.20;15.52;;;;;;;;;;5020003;28;20406;-87
2024/01/15 07:25:48;;;;;;;29.55;16.02;;;;;;;;;;5017849;28;20238;-87
2024/01/15 07:28:14;;;;;;;27.20;12.20;;;;;;;;;;5001177;28;20262;-86
2024/01/15 07:30:40;;;;;;;32.53;16.40;;;;;;;;;;5000666;28;20179;-86
2024/01/15 07:33:06;;;;;;;25.75;15.35;;;;;;;;;;5000744;28;20179;-86
2024/01/15 07:35:32;;;;;;;37.20;20.17;;;;;;;;;;5001285;28;20173;-86
2024/01/15 07:37:58;;;;;;;32.53;17.05;;;;;;;;;;5001212;28;20177;-86
2024/01/15 07:40:24;;;;;;;31.75;17.58;;;;;;;;;;5001309;28;20187;-86
2024/01/15 07:42:51;;;;;;;31.05;18.67;;;;;;;;;;5001202;28;20196;-86
2024/01/15 07:45:17;;;;;;;30.70;17.48;;;;;;;;;;5016199;28;20182;-86
2024/01/15 07:47:43;;;;;;;33.97;18.17;;;;;;;;;;5000965;28;20204;-87
2024/01/15 07:50:09;;;;;;;34.92;19.25;;;;;;;;;;5000881;28;20304;-85
2024/01/15 07:52:35;;;;;;;37.03;19.80;;;;;;;;;;5000987;28;20175;-86
2024/01/15 07:55:03;;;;;;;37.00;19.30;;;;;;;;;;5001837;28;20679;-86
2024/01/15 07:57:29;;;;;;;43.75;19.75;;;;;;;;;;5016768;28;20194;-85
2024/01/15 07:59:55;;;;;;;42.38;20.45;;;;;;;;;;5019515;28;20178;-85
2024/01/15 08:02:21;;;;;;;37.75;15.57;;;;;;;;;;5019967;28;20179;-85
2024/01/15 08:04:47;;;;;;;31.90;17.80;;;;;;;;;;5021258;28;20171;-85
2024/01/15 08:07:13;;;;;;;35.22;18.77;;;;;;;;;;5021409;28;20550;-85
2024/01/15 08:09:39;;;;;;;32.75;19.77;;;;;;;;;;5021054;28;20249;-84
2024/01/15 08:12:06;;;;;;;19.55;12.25;;;;;;;;;;5019995;28;20639;-85
2024/01/15 08:14:32;;;;;;;40.13;19.48;;;;;;;;;;5020551;28;20278;-85
2024/01/15 08:16:58;;;;;;;31.05;17.38;;;;;;;;;;5021928;28;20515;-85
2024/01/15 08:19:24;;;;;;;27.23;14.48;;;;;;;;;;5021456;28;20172;-84
2024/01/15 08:21:50;;;;;;;28.38;17.98;;;;;;;;;;5022073;28;20179;-85
2024/01/15 08:24:16;;;;;;;31.88;17.42;;;;;;;;;;5021819;28;20230;-84
2024/01/15 08:26:42;;;;;;;27.65;15.57;;;;;;;;;;5021942;28;20222;-84
2024/01/15 08:29:08;;;;;;;32.33;18.17;;;;;;;;;;5020396;28;20210;-85
2024/01/15 08:31:34;;;;;;;24.00;15.98;;;;;;;;;;5021377;28;20186;-84
2024/01/15 08:34:01;;;;;;;33.60;16.97;;;;;;;;;;5021038;28;20180;-84
2024/01/15 08:36:29;;;;;;;16.98;9.10;;;;;;;;;;5021575;28;20398;-84
2024/01/15 08:38:55;;;;;;;27.02;14.05;;;;;;;;;;5024112;28;20195;-84
2024/01/15 08:41:21;;;;;;;25.05;13.13;;;;;;;;;;5040246;28;20552;-84
2024/01/15 08:43:47;;;;;;;24.73;15.10;;;;;;;;;;5040639;28;20589;-85
2024/01/15 08:46:13;;;;;;;21.65;13.80;;;;;;;;;;5040598;28;20262;-84
2024/01/15 08:48:39;;;;;;;27.92;12.43;;;;;;;;;;5041354;28;20203;-84
2024/01/15 08:51:05;;;;;;;19.40;13.23;;;;;;;;;;5039419;28;20174;-84
2024/01/15 08:53:32;;;;;;;22.23;15.27;;;;;;;;;;5040582;28;20432;-84
2024/01/15 08:55:58;;;;;;;25.35;15.98;;;;;;;;;;5040802;28;20199;-85
2024/01/15 08:58:25;;;;;;;33.35;14.52;;;;;;;;;;5040597;28;20179;-84
2024/01/15 09:00:51;;;;;;;17.45;10.25;;;;;;;;;;5040330;28;20199;-84
2024/01/15 09:03:17;;;;;;;23.63;14.35;;;;;;;;;;5038636;28;20179;-85
2024/01/15 09:05:43;;;;;;;21.53;12.10;;;;;;;;;;5040347;28;20180;-85
2024/01/15 09:08:09;;;;;;;24.65;13.55;;;;;;;;;;5037649;28;20811;-85
2024/01/15 09:10:36;;;;;;;20.45;12.05;;;;;;;;;;5019549;28;20250;-85
2024/01/15 09:13:04;;;;;;;17.90;11.00;;;;;;;;;;5017685;28;20662;-85
2024/01/15 09:15:30;;;;;;;16.00;10.25;;;;;;;;;;5031289;28;20209;-85
2024/01/15 09:17:58;;;;;;;20.43;11.00;;;;;;;;;;5039070;28;20182;-85
2024/01/15 09:20:25;;;;;;;18.45;9.57;;;;;;;;;;5039487;28;20414;-85
2024/01/15 09:22:51;;;;;;;14.13;8.20;;;;;;;;;;5037579;28;20179;-85
2024/01/15 09:25:18;;;;;;;13.82;9.35;;;;;;;;;;5037640;28;20189;-85
2024/01/15 09:27:44;;;;;;;21.13;10.82;;;;;;;;;;5038670;28;20198;-85
2024/01/15 09:30:11;;;;;;;16.38;10.80;;;;;;;;;;5037943;28;20610;-86
2024/01/15 09:32:37;;;;;;;14.52;9.82;;;;;;;;;;5038472;28;20611;-85
2024/01/15 09:35:03;;;;;;;12.65;9.43;;;;;;;;;;5038010;28;20184;-86
2024/01/15 09:37:29;;;;;;;15.00;9.82;;;;;;;;;;5037095;28;20637;-87
2024/01/15 09:39:55;;;;;;;11.95;8.68;;;;;;;;;;5037602;28;20222;-87
2024/01/15 09:42:22;;;;;;;13.00;8.18;;;;;;;;;;5037356;28;20205;-87
2024/01/15 09:44:48;;;;;;;9.90;7.57;;;;;;;;;;5034663;28;20218;-87
2024/01/15 09:47:16;;;;;;;14.23;6.65;;;;;;;;;;5016678;28;20344;-88
2024/01/15 09:49:42;;;;;;;10.15;6.40;;;;;;;;;;5017791;28;20178;-87
2024/01/15 09:52:08;;;;;;;10.35;6.45;;;;;;;;;;5017980;28;20167;-87
2024/01/15 09:54:34;;;;;;;8.00;5.25;;;;;;;;;;5017508;28;20539;-87
2024/01/15 09:57:01;;;;;;;9.75;6.38;;;;;;;;;;5018529;28;20182;-86
2024/01/15 09:59:27;;;;;;;12.70;6.93;;;;;;;;;;5018422;28;20198;-86
2024/01/15 10:01:54;;;;;;;10.50;5.70;;;;;;;;;;5018141;28;20208;-87
2024/01/15 10:04:20;;;;;;;10.40;7.30;;;;;;;;;;5018092;28;20198;-86
2024/01/15 10:06:46;;;;;;;10.90;7.33;;;;;;;;;;5017260;28;20239;-86
2024/01/15 10:09:15;;;;;;;10.60;6.78;;;;;;;;;;5016118;28;20981;-86
2024/01/15 10:11:42;;;;;;;8.55;6.00;;;;;;;;;;5017879;28;20230;-85
2024/01/15 10:14:08;;;;;;;11.48;7.07;;;;;;;;;;5018059;28;20177;-86
2024/01/15 10:16:34;;;;;;;10.15;7.78;;;;;;;;;;5020038;28;20206;-86
2024/01/15 10:19:00;;;;;;;10.98;7.35;;;;;;;;;;5021146;28;20212;-86
2024/01/15 10:21:29;;;;;;;14.88;8.82;;;;;;;;;;5018934;28;20243;-86
2024/01/15 10:23:55;;;;;;;11.68;7.95;;;;;;;;;;5006450;28;20262;-86
2024/01/15 10:26:25;;;;;;;18.92;7.78;;;;;;;;;;5001897;28;20207;-85
2024/01/15 10:28:52;;;;;;;9.43;5.85;;;;;;;;;;5014012;28;20288;-86
2024/01/15 10:31:19;;;;;;;13.48;6.68;;;;;;;;;;5002126;28;20168;-85
2024/01/15 10:33:45;;;;;;;8.02;6.00;;;;;;;;;;5001843;28;20188;-86
2024/01/15 10:36:11;;;;;;;14.05;8.15;;;;;;;;;;5001989;28;20186;-87
2024/01/15 10:38:37;;;;;;;9.60;6.13;;;;;;;;;;5001693;28;20260;-87
2024/01/15 10:41:04;;;;;;;5.93;4.55;;;;;;;;;;4999814;28;20203;-86
2024/01/15 10:43:30;;;;;;;6.80;5.40;;;;;;;;;;4999742;28;20181;-87
2024/01/15 10:45:56;;;;;;;6.73;5.00;;;;;;;;;;5008478;28;20183;-87
2024/01/15 10:48:22;;;;;;;9.68;5.90;;;;;;;;;;5000944;28;20961;-87
2024/01/15 10:50:48;;;;;;;11.55;6.65;;;;;;;;;;5007909;28;20267;-87
2024/01/15 10:53:15;;;;;;;12.25;7.75;;;;;;;;;;5020190;28;20262;-87
2024/01/15 10:55:42;;;;;;;11.40;7.05;;;;;;;;;;5021007;28;20179;-87
2024/01/15 10:58:09;;;;;;;9.75;7.38;;;;;;;;;;5020166;28;20258;-86
2024/01/15 11:00:38;;;;;;;10.65;7.75;;;;;;;;;;5019000;28;20177;-87
2024/01/15 11:03:05;;;;;;;11.10;6.15;;;;;;;;;;5020245;28;20189;-87
2024/01/15 11:05:38;;;;;;;9.45;7.18;;;;;;;;;;5020373;28;20203;-87
2024/01/15 11:08:06;;;;;;;10.57;7.70;;;;;;;;;;5018522;28;20286;-87
2024/01/15 11:10:42;;;;;;;12.25;8.13;;;;;;;;;;5020478;28;20316;-86
2024/01/15 11:13:23;;;;;;;11.05;7.15;;;;;;;;;;5020046;28;20170;-86
2024/01/15 11:15:59;;;;;;;11.00;7.53;;;;;;;;;;5020569;28;20175;-86
2024/01/15 11:18:26;;;;;;;14.27;10.13;;;;;;;;;;5020414;28;20649;-86
2024/01/15 11:21:12;;;;;;;13.00;9.60;;;;;;;;;;5018972;28;20573;-86
2024/01/15 11:23:48;;;;;;;14.20;10.57;;;;;;;;;;5018921;28;20182;-86
2024/01/15 11:26:32;;;;;;;15.93;10.95;;;;;;;;;;5018866;28;20266;-87
2024/01/15 11:29:00;;;;;;;12.95;10.55;;;;;;;;;;5004242;28;20206;-86
2024/01/15 11:31:29;;;;;;;14.18;11.05;;;;;;;;;;5000495;28;20222;-86
2024/01/15 11:33:55;;;;;;;17.98;11.75;;;;;;;;;;5006243;28;20212;-85
2024/01/15 11:36:21;;;;;;;18.88;11.88;;;;;;;;;;5006107;28;20706;-86
2024/01/15 11:38:47;;;;;;;20.92;12.50;;;;;;;;;;5000791;28;20188;-85
2024/01/15 11:41:16;;;;;;;16.40;11.73;;;;;;;;;;5000567;28;20188;-85
2024/01/15 11:43:42;;;;;;;13.20;10.75;;;;;;;;;;5016313;28;20454;-85
2024/01/15 11:46:12;;;;;;;17.10;11.30;;;;;;;;;;5001601;28;20181;-84
2024/01/15 11:48:47;;;;;;;21.38;12.65;;;;;;;;;;5001784;28;20621;-84
2024/01/15 11:51:13;;;;;;;18.65;10.15;;;;;;;;;;5001384;28;20202;-85
2024/01/15 11:53:42;;;;;;;18.15;11.63;;;;;;;;;;5017411;28;20187;-84
2024/01/15 11:56:13;;;;;;;19.58;14.20;;;;;;;;;;5006809;28;20648;-84
2024/01/15 11:58:39;;;;;;;15.75;11.75;;;;;;;;;;5001676;28;20171;-84
2024/01/15 12:01:05;;;;;;;15.15;9.90;;;;;;;;;;5001057;28;20267;-85
2024/01/15 12:03:33;;;;;;;16.42;11.98;;;;;;;;;;5016057;28;20192;-85
2024/01/15 12:05:59;;;;;;;16.42;11.02;;;;;;;;;;5001393;28;20169;-85
2024/01/15 12:08:27;;;;;;;22.02;12.25;;;;;;;;;;5001267;28;20212;-84
2024/01/15 12:10:53;;;;;;;11.30;7.32;;;;;;;;;;5001200;28;20299;-84
2024/01/15 12:13:19;;;;;;;20.20;11.55;;;;;;;;;;5001814;28;20182;-84
2024/01/15 12:15:46;;;;;;;8.68;7.03;;;;;;;;;;5001625;28;20176;-84
2024/01/15 12:18:16;;;;;;;34.45;11.55;;;;;;;;;;5010706;28;20186;-84
2024/01/15 12:20:43;;;;;;;13.95;9.00;;;;;;;;;;5020209;28;20245;-84
2024/01/15 12:23:10;;;;;;;14.90;7.95;;;;;;;;;;5020447;28;20177;-84
2024/01/15 12:25:36;;;;;;;18.55;9.63;;;;;;;;;;5019199;28;20179;-84
2024/01/15 12:28:02;;;;;;;14.60;9.95;;;;;;;;;;5018721;28;20210;-84
2024/01/15 12:30:28;;;;;;;14.18;9.60;;;;;;;;;;5019477;28;20192;-84
2024/01/15 12:32:55;;;;;;;22.90;9.00;;;;;;;;;;5020352;28;20171;-84
2024/01/15 12:35:21;;;;;;;12.40;8.02;;;;;;;;;;5020140;28;20176;-84
2024/01/15 12:37:48;;;;;;;13.80;7.45;;;;;;;;;;5019590;28;20194;-84
2024/01/15 12:40:19;;;;;;;13.38;9.50;;;;;;;;;;5019788;28;20262;-85
2024/01/15 12:42:45;;;;;;;21.95;7.90;;;;;;;;;;5020919;28;20180;-85
2024/01/15 12:45:12;;;;;;;18.97;8.00;;;;;;;;;;5020604;28;20177;-84
2024/01/15 12:47:38;;;;;;;17.33;6.35;;;;;;;;;;5019710;28;20463;-84
2024/01/15 12:50:11;;;;;;;11.43;6.15;;;;;;;;;;5020230;28;20187;-84
2024/01/15 12:52:38;;;;;;;14.07;7.28;;;;;;;;;;5020706;28;20513;-84
2024/01/15 12:55:07;;;;;;;20.20;7.80;;;;;;;;;;5020064;28;20177;-84
2024/01/15 12:57:34;;;;;;;10.60;6.30;;;;;;;;;;5020066;28;20193;-84
2024/01/15 13:00:00;;;;;;;17.35;7.00;;;;;;;;;;5002363;28;20189;-84
2024/01/15 13:02:26;;;;;;;14.35;6.22;;;;;;;;;;5000894;28;20182;-83
2024/01/15 13:04:53;;;;;;;13.65;5.95;;;;;;;;;;5000579;28;20179;-83
2024/01/15 13:07:20;;;;;;;11.68;5.35;;;;;;;;;;5015547;28;20207;-84
2024/01/15 13:09:45;;;;;;;10.95;6.18;;;;;;;;;;5014702;28;20539;-84
2024/01/15 13:12:11;;;;;;;12.67;5.60;;;;;;;;;;5001219;28;20187;-83
2024/01/15 13:14:38;;;;;;;12.17;5.10;;;;;;;;;;4999225;28;20463;-83
2024/01/15 13:17:04;;;;;;;8.75;5.10;;;;;;;;;;5000287;28;20403;-84
2024/01/15 13:19:30;;;;;;;8.88;4.72;;;;;;;;;;5001803;28;20652;-84
2024/01/15 13:21:58;;;;;;;13.75;5.82;;;;;;;;;;5015575;28;20182;-83
2024/01/15 13:24:24;;;;;;;7.88;3.42;;;;;;;;;;5020523;28;20209;-83
2024/01/15 13:26:50;;;;;;;2.30;1.97;;;;;;;;;;5020497;28;20186;-82
2024/01/15 13:29:16;;;;;;;5.85;2.60;;;;;;;;;;5019900;28;20475;-82
2024/01/15 13:31:42;;;;;;;3.27;1.77;;;;;;;;;;5021032;28;20261;-82
2024/01/15 13:34:09;;;;;;;5.60;1.90;;;;;;;;;;5020566;28;20408;-83
2024/01/15 13:36:35;;;;;;;3.35;2.78;;;;;;;;;;5019609;28;20200;-83
2024/01/15 13:39:01;;;;;;;3.47;1.80;;;;;;;;;;5019719;28;20183;-84
2024/01/15 13:41:27;;;;;;;3.35;2.28;;;;;;;;;;5019243;28;20184;-84
2024/01/15 13:43:53;;;;;;;3.67;2.10;;;;;;;;;;5019305;28;20690;-84
2024/01/15 13:46:20;;;;;;;2.03;1.65;;;;;;;;;;5019184;28;20180;-84
2024/01/15 13:48:46;;;;;;;1.55;1.45;;;;;;;;;;5019598;28;20252;-84
2024/01/15 13:51:12;;;;;;;9.50;3.00;;;;;;;;;;5017942;28;20187;-85
2024/01/15 13:53:39;;;;;;;3.05;2.45;;;;;;;;;;5020041;28;20422;-84
2024/01/15 13:56:05;;;;;;;3.67;2.70;;;;;;;;;;5019607;28;20176;-85
2024/01/15 13:58:32;;;;;;;2.58;2.38;;;;;;;;;;5019676;28;20178;-84
2024/01/15 14:00:58;;;;;;;2.28;2.08;;;;;;;;;;5019978;28;20188;-84
2024/01/15 14:03:25;;;;;;;8.27;3.88;;;;;;;;;;5019459;28;20179;-86
2024/01/15 14:05:51;;;;;;;2.92;2.13;;;;;;;;;;5019125;28;20178;-84
2024/01/15 14:08:17;;;;;;;2.50;1.90;;;;;;;;;;5018648;28;20214;-84
2024/01/15 14:10:43;;;;;;;2.50;2.10;;;;;;;;;;5018921;28;20230;-84
2024/01/15 14:13:09;;;;;;;5.50;2.45;;;;;;;;;;5018856;28;20448;-84
2024/01/15 14:15:35;;;;;;;2.73;1.90;;;;;;;;;;5019240;28;20705;-84
2024/01/15 14:18:01;;;;;;;4.05;2.30;;;;;;;;;;5019006;28;20428;-84
2024/01/15 14:20:27;;;;;;;3.08;2.05;;;;;;;;;;5018936;28;20637;-84